createdAt,value
2023-03-28T00:01:15.708Z,9.82
2023-03-28T00:03:46.637Z,9.74
2023-03-28T00:06:18.923Z,9.79
2023-03-28T00:08:48.214Z,9.78
2023-03-28T00:11:20.188Z,9.92
2023-03-28T00:13:50.387Z,10.01
2023-03-28T00:16:19.090Z,9.99
2023-03-28T00:18:47.647Z,10.01
2023-03-28T00:21:19.890Z,9.91
2023-03-28T00:23:52.705Z,9.86
2023-03-28T00:26:24.935Z,9.81
2023-03-28T00:28:53.710Z,9.75
2023-03-28T00:31:25.341Z,9.63
2023-03-28T00:33:53.985Z,9.66
2023-03-28T00:36:26.865Z,9.59
2023-03-28T00:39:01.496Z,9.60
2023-03-28T00:41:33.052Z,9.65
2023-03-28T00:44:01.436Z,9.74
2023-03-28T00:46:41.279Z,9.73
2023-03-28T00:49:21.496Z,9.79
2023-03-28T00:51:57.558Z,9.82
2023-03-28T00:54:26.987Z,9.84
2023-03-28T00:56:58.712Z,9.83
2023-03-28T00:59:29.487Z,9.99
2023-03-28T01:01:57.839Z,10.01
2023-03-28T01:04:33.491Z,10.07
2023-03-28T01:07:02.110Z,9.97
2023-03-28T01:09:32.359Z,9.96
2023-03-28T01:12:01.287Z,9.87
2023-03-28T01:14:29.872Z,9.83
2023-03-28T01:16:59.065Z,9.80
2023-03-28T01:19:31.293Z,9.75
2023-03-28T01:22:25.155Z,9.74
2023-03-28T01:25:23.152Z,9.75
2023-03-28T01:28:04.843Z,9.79
2023-03-28T01:31:04.395Z,9.76
2023-03-28T01:34:25.754Z,9.44
2023-03-28T01:37:31.686Z,9.43
2023-03-28T01:40:22.306Z,9.33
2023-03-28T01:43:10.707Z,9.33
2023-03-28T01:45:56.033Z,9.33
2023-03-28T01:48:34.531Z,9.37
2023-03-28T01:51:32.134Z,9.27
2023-03-28T01:54:05.425Z,9.22
2023-03-28T01:56:41.815Z,9.19
2023-03-28T01:59:31.892Z,9.13
2023-03-28T02:02:42.421Z,9.04
2023-03-28T02:05:24.016Z,9.06
2023-03-28T02:07:58.439Z,8.93
2023-03-28T02:10:49.526Z,8.86
2023-03-28T02:13:49.184Z,8.87
2023-03-28T02:16:41.658Z,8.87
2023-03-28T02:19:34.132Z,8.86
2023-03-28T02:22:25.849Z,8.91
2023-03-28T02:24:59.930Z,8.95
2023-03-28T02:27:40.176Z,8.95
2023-03-28T02:30:23.013Z,8.93
2023-03-28T02:32:52.784Z,8.99
2023-03-28T02:35:24.371Z,8.98
2023-03-28T02:38:04.305Z,8.94
2023-03-28T02:40:40.530Z,8.93
2023-03-28T02:43:30.344Z,8.94
2023-03-28T02:46:11.726Z,8.90
2023-03-28T02:48:43.637Z,8.91
2023-03-28T02:51:22.714Z,8.98
2023-03-28T02:54:03.646Z,8.99
2023-03-28T02:56:43.809Z,8.87
2023-03-28T02:59:27.738Z,8.83
2023-03-28T03:01:56.922Z,8.90
2023-03-28T03:04:25.401Z,8.93
2023-03-28T03:06:53.831Z,8.98
2023-03-28T03:09:27.251Z,9.00
2023-03-28T03:11:56.163Z,9.06
2023-03-28T03:14:24.451Z,9.01
2023-03-28T03:16:54.359Z,9.06
2023-03-28T03:19:23.027Z,9.07
2023-03-28T03:21:51.189Z,9.04
2023-03-28T03:24:19.450Z,8.96
2023-03-28T03:26:48.264Z,9.01
2023-03-28T03:29:18.067Z,9.00
2023-03-28T03:31:46.914Z,8.93
2023-03-28T03:34:41.591Z,8.95
2023-03-28T03:37:10.095Z,8.99
2023-03-28T03:39:38.281Z,9.03
2023-03-28T03:42:11.328Z,8.97
2023-03-28T03:44:49.327Z,9.02
2023-03-28T03:47:19.951Z,9.02
2023-03-28T03:49:51.199Z,8.98
2023-03-28T03:52:19.577Z,9.01
2023-03-28T03:54:48.394Z,8.99
2023-03-28T03:57:17.760Z,9.00
2023-03-28T03:59:46.486Z,9.00
2023-03-28T04:02:18.045Z,9.07
2023-03-28T04:05:00.015Z,9.10
2023-03-28T04:08:01.751Z,9.05
2023-03-28T04:10:42.799Z,9.09
2023-03-28T04:13:11.290Z,9.11
2023-03-28T04:15:39.563Z,9.00
2023-03-28T04:18:29.961Z,9.02
2023-03-28T04:20:59.875Z,9.04
2023-03-28T04:23:48.559Z,8.99
2023-03-28T04:26:38.267Z,9.00
2023-03-28T04:29:10.744Z,9.05
2023-03-28T04:31:40.416Z,9.01
2023-03-28T04:34:30.324Z,8.99
2023-03-28T04:37:06.988Z,8.95
2023-03-28T04:39:48.210Z,8.96
2023-03-28T04:42:39.569Z,8.99
2023-03-28T04:45:17.175Z,9.00
2023-03-28T04:47:46.899Z,9.11
2023-03-28T04:50:20.241Z,9.01
2023-03-28T04:52:48.636Z,8.97
2023-03-28T04:55:17.771Z,9.07
2023-03-28T04:57:49.118Z,9.06
2023-03-28T05:00:20.368Z,9.07
2023-03-28T05:03:18.732Z,9.13
2023-03-28T05:05:58.724Z,9.22
2023-03-28T05:08:27.977Z,9.24
2023-03-28T05:10:56.318Z,9.22
2023-03-28T05:13:27.661Z,9.26
2023-03-28T05:16:19.603Z,9.29
2023-03-28T05:19:14.852Z,9.26
2023-03-28T05:22:09.530Z,9.26
2023-03-28T05:24:39.891Z,9.32
2023-03-28T05:27:13.999Z,9.30
2023-03-28T05:29:45.202Z,9.24
2023-03-28T05:32:19.297Z,9.29
2023-03-28T05:34:47.610Z,9.32
2023-03-28T05:37:16.112Z,9.35
2023-03-28T05:39:47.165Z,9.39
2023-03-28T05:42:15.736Z,9.34
2023-03-28T05:44:44.940Z,9.33
2023-03-28T05:47:33.337Z,9.28
2023-03-28T05:50:02.239Z,9.30
2023-03-28T05:52:31.941Z,9.31
2023-03-28T05:55:00.804Z,9.23
2023-03-28T05:57:31.566Z,9.14
2023-03-28T06:00:00.056Z,9.07
2023-03-28T06:02:33.613Z,9.13
2023-03-28T06:05:02.505Z,9.04
2023-03-28T06:07:41.924Z,8.98
2023-03-28T06:10:13.364Z,9.00
2023-03-28T06:12:45.981Z,8.99
2023-03-28T06:15:14.264Z,8.96
2023-03-28T06:17:50.581Z,8.96
2023-03-28T06:20:22.593Z,8.96
2023-03-28T06:22:55.513Z,9.06
2023-03-28T06:25:23.934Z,8.89
2023-03-28T06:27:52.534Z,8.89
2023-03-28T06:30:21.601Z,8.90
2023-03-28T06:32:53.566Z,8.97
2023-03-28T06:35:22.766Z,8.99
2023-03-28T06:37:54.929Z,9.01
2023-03-28T06:40:33.519Z,9.01
2023-03-28T06:43:01.951Z,9.08
2023-03-28T06:45:47.071Z,9.09
2023-03-28T06:48:17.539Z,9.17
2023-03-28T06:51:06.805Z,9.21
2023-03-28T06:53:36.324Z,9.34
2023-03-28T06:56:04.840Z,9.40
2023-03-28T06:58:36.500Z,9.44
2023-03-28T07:01:16.129Z,9.46
2023-03-28T07:04:14.754Z,9.52
2023-03-28T07:06:47.677Z,9.54
2023-03-28T07:09:16.040Z,9.55
2023-03-28T07:12:12.852Z,9.50
2023-03-28T07:14:48.477Z,9.38
2023-03-28T07:17:19.409Z,9.36
2023-03-28T07:19:54.581Z,9.43
2023-03-28T07:22:24.024Z,9.34
2023-03-28T07:24:52.599Z,9.37
2023-03-28T07:27:24.859Z,9.40
2023-03-28T07:29:59.157Z,9.50
2023-03-28T07:32:35.805Z,9.52
2023-03-28T07:35:23.316Z,9.40
2023-03-28T07:37:53.168Z,8.90
2023-03-28T07:40:51.014Z,8.35
2023-03-28T07:43:21.923Z,8.04
2023-03-28T07:46:06.949Z,7.73
2023-03-28T07:48:37.010Z,7.47
2023-03-28T07:51:09.456Z,7.24
2023-03-28T07:53:43.311Z,7.01
2023-03-28T07:56:12.266Z,6.82
2023-03-28T07:59:04.526Z,6.63
2023-03-28T08:01:33.740Z,6.58
2023-03-28T08:04:10.041Z,6.42
2023-03-28T08:07:00.456Z,6.28
2023-03-28T08:09:28.889Z,6.14
2023-03-28T08:12:28.347Z,5.84
2023-03-28T08:15:16.671Z,5.81
2023-03-28T08:17:45.639Z,5.79
2023-03-28T08:20:20.157Z,5.81
2023-03-28T08:22:49.681Z,5.83
2023-03-28T08:25:36.404Z,5.84
2023-03-28T08:28:05.518Z,5.84
2023-03-28T08:30:35.779Z,5.95
2023-03-28T08:33:05.055Z,5.90
2023-03-28T08:35:34.043Z,5.92
2023-03-28T08:38:11.338Z,5.85
2023-03-28T08:40:46.210Z,5.84
2023-03-28T08:43:25.710Z,5.81
2023-03-28T08:45:54.032Z,5.75
2023-03-28T08:48:27.843Z,5.72
2023-03-28T08:51:11.837Z,5.70
2023-03-28T08:53:49.285Z,5.78
2023-03-28T08:56:18.476Z,5.68
2023-03-28T08:58:51.564Z,5.64
2023-03-28T09:01:23.752Z,5.61
2023-03-28T09:03:52.507Z,5.62
2023-03-28T09:06:39.060Z,5.57
2023-03-28T09:09:20.542Z,5.58
2023-03-28T09:13:12.524Z,5.54
2023-03-28T09:16:22.422Z,5.66
2023-03-28T09:19:40.548Z,5.79
2023-03-28T09:22:57.299Z,5.93
2023-03-28T09:25:52.327Z,6.10
2023-03-28T09:28:51.375Z,6.26
2023-03-28T09:31:29.037Z,6.37
2023-03-28T09:34:00.877Z,6.44
2023-03-28T09:36:49.406Z,6.48
2023-03-28T09:39:37.929Z,6.53
2023-03-28T09:42:25.560Z,6.62
2023-03-28T09:45:36.353Z,6.66
2023-03-28T09:48:35.425Z,6.70
2023-03-28T09:51:07.799Z,6.70
2023-03-28T09:53:39.547Z,6.73
2023-03-28T09:56:23.797Z,6.78
2023-03-28T09:58:57.115Z,6.84
2023-03-28T10:01:43.696Z,6.89
2023-03-28T10:04:39.115Z,6.95
2023-03-28T10:07:38.126Z,7.00
2023-03-28T10:10:25.205Z,7.02
2023-03-28T10:13:03.237Z,7.10
2023-03-28T10:15:33.121Z,7.03
2023-03-28T10:18:21.069Z,7.02
2023-03-28T10:21:25.894Z,7.08
2023-03-28T10:24:19.091Z,7.14
2023-03-28T10:27:24.288Z,7.20
2023-03-28T10:29:55.861Z,7.20
2023-03-28T10:32:31.359Z,7.20
2023-03-28T11:08:46.991Z,7.54
2023-03-28T11:11:55.581Z,7.59
2023-03-28T11:14:43.228Z,7.70
2023-03-28T11:17:47.692Z,7.89
2023-03-28T11:20:50.613Z,7.98
2023-03-28T11:23:38.569Z,7.92
2023-03-28T11:27:15.615Z,7.77
2023-03-28T11:30:17.039Z,7.74
2023-03-28T11:33:13.430Z,7.84
2023-03-28T11:35:48.734Z,7.80
2023-03-28T11:38:25.169Z,7.67
2023-03-28T11:41:00.735Z,7.68
2023-03-28T11:44:06.161Z,7.50
2023-03-28T11:46:43.103Z,7.52
2023-03-28T11:49:42.720Z,7.49
2023-03-28T11:52:36.685Z,7.44
2023-03-28T11:55:09.504Z,7.41
2023-03-28T11:57:51.602Z,7.61
2023-03-28T12:00:33.229Z,7.38
2023-03-28T12:03:30.570Z,7.22
2023-03-28T12:06:05.380Z,7.19
2023-03-28T12:08:38.617Z,7.08
2023-03-28T12:11:14.518Z,7.00
2023-03-28T12:14:11.661Z,6.93
2023-03-28T12:16:45.886Z,6.79
2023-03-28T12:19:34.482Z,6.76
2023-03-28T12:22:26.937Z,6.76
2023-03-28T12:25:01.266Z,6.69
2023-03-28T12:28:08.647Z,6.60
2023-03-28T12:30:45.633Z,6.59
2023-03-28T12:33:36.022Z,6.63
2023-03-28T12:36:18.157Z,6.75
2023-03-28T12:39:12.673Z,6.89
2023-03-28T12:41:44.425Z,6.95
2023-03-28T12:44:25.092Z,7.06
2023-03-28T12:47:00.267Z,7.17
2023-03-28T12:49:45.287Z,7.21
2023-03-28T12:52:28.682Z,7.21
2023-03-28T12:55:01.115Z,7.12
2023-03-28T12:57:55.056Z,7.04
2023-03-28T13:01:07.134Z,6.95
2023-03-28T13:04:00.250Z,6.91
2023-03-28T13:07:03.957Z,6.82
2023-03-28T13:09:49.978Z,6.87
2023-03-28T13:12:46.439Z,6.80
2023-03-28T13:15:14.773Z,6.81
2023-03-28T13:18:20.465Z,6.78
2023-03-28T13:20:51.679Z,6.91
2023-03-28T13:23:45.252Z,7.02
2023-03-28T13:26:14.095Z,7.01
2023-03-28T13:28:50.677Z,6.85
2023-03-28T13:31:25.811Z,6.71
2023-03-28T13:34:02.823Z,6.79
2023-03-28T13:36:35.659Z,6.77
2023-03-28T13:39:09.769Z,6.73
2023-03-28T13:41:44.134Z,6.77
2023-03-28T13:44:22.325Z,6.69
2023-03-28T13:46:56.841Z,6.58
2023-03-28T13:49:41.762Z,6.47
2023-03-28T13:52:16.286Z,6.44
2023-03-28T13:54:46.450Z,6.37
2023-03-28T13:57:18.938Z,6.30
2023-03-28T14:00:07.245Z,6.28
2023-03-28T14:02:47.126Z,6.14
2023-03-28T14:05:26.142Z,6.08
2023-03-28T14:08:02.283Z,6.07
2023-03-28T14:10:36.122Z,5.99
2023-03-28T14:13:15.246Z,5.91
2023-03-28T14:15:44.865Z,5.82
2023-03-28T14:18:19.027Z,5.72
2023-03-28T14:20:48.034Z,5.54
2023-03-28T14:23:27.960Z,5.58
2023-03-28T14:26:03.984Z,5.54
2023-03-28T14:28:38.104Z,5.56
2023-03-28T14:31:15.187Z,5.45
2023-03-28T14:33:47.365Z,5.30
2023-03-28T14:36:19.509Z,5.13
2023-03-28T14:38:48.019Z,5.05
2023-03-28T14:41:21.713Z,5.02
2023-03-28T14:44:00.412Z,5.05
2023-03-28T14:46:35.173Z,4.93
2023-03-28T14:49:06.800Z,4.75
2023-03-28T14:51:42.812Z,4.66
2023-03-28T14:54:19.336Z,4.61
2023-03-28T14:56:48.119Z,4.65
2023-03-28T14:59:21.285Z,4.74
2023-03-28T15:01:53.567Z,4.71
2023-03-28T15:04:23.049Z,4.79
2023-03-28T15:06:58.795Z,4.87
2023-03-28T15:09:34.496Z,4.98
2023-03-28T15:12:05.406Z,4.93
2023-03-28T15:14:40.009Z,4.89
2023-03-28T15:17:13.779Z,5.08
2023-03-28T15:19:42.646Z,5.02
2023-03-28T15:22:12.634Z,4.96
2023-03-28T15:24:46.069Z,4.79
2023-03-28T15:27:22.975Z,4.75
2023-03-28T15:29:51.270Z,4.68
2023-03-28T15:32:20.556Z,4.64
2023-03-28T15:34:56.618Z,4.64
2023-03-28T15:37:27.350Z,4.64
2023-03-28T15:40:23.382Z,4.60
2023-03-28T15:42:52.061Z,4.59
2023-03-28T15:45:20.925Z,4.51
2023-03-28T15:47:50.516Z,4.45
2023-03-28T15:50:26.631Z,4.38
2023-03-28T15:53:04.289Z,4.43
2023-03-28T15:55:34.575Z,4.47
2023-03-28T15:58:04.587Z,4.43
2023-03-28T16:00:37.043Z,4.32
2023-03-28T16:03:21.373Z,4.26
2023-03-28T16:06:01.870Z,4.18
2023-03-28T16:09:12.932Z,4.22
2023-03-28T16:11:42.442Z,3.91
2023-03-28T16:14:20.082Z,3.79
2023-03-28T16:17:07.893Z,3.76
2023-03-28T16:19:44.143Z,3.75
2023-03-28T16:22:12.889Z,3.84
2023-03-28T16:24:42.683Z,3.87
2023-03-28T16:27:11.776Z,3.86
2023-03-28T16:29:43.482Z,3.80
2023-03-28T16:32:12.884Z,3.86
2023-03-28T16:34:42.174Z,3.81
2023-03-28T16:37:10.479Z,3.81
2023-03-28T16:39:39.249Z,3.78
2023-03-28T16:42:07.472Z,3.78
2023-03-28T16:44:35.673Z,3.78
2023-03-28T16:47:04.203Z,3.79
2023-03-28T16:49:33.037Z,3.89
2023-03-28T16:52:01.204Z,3.91
2023-03-28T16:54:31.157Z,3.94
2023-03-28T16:56:59.617Z,3.98
2023-03-28T16:59:27.875Z,3.88
2023-03-28T17:01:56.204Z,3.80
2023-03-28T17:04:24.390Z,3.86
2023-03-28T17:06:52.955Z,3.95
2023-03-28T17:09:22.633Z,3.90
2023-03-28T17:11:51.297Z,3.86
2023-03-28T17:14:21.411Z,4.02
2023-03-28T17:16:50.698Z,3.72
2023-03-28T17:19:24.294Z,3.68
2023-03-28T17:22:02.154Z,3.71
2023-03-28T17:24:33.241Z,3.67
2023-03-28T17:27:01.933Z,3.67
2023-03-28T17:29:30.948Z,3.49
2023-03-28T17:31:59.162Z,3.41
2023-03-28T17:34:27.446Z,3.43
2023-03-28T17:37:04.360Z,3.43
2023-03-28T17:39:32.565Z,3.42
2023-03-28T17:42:00.887Z,3.35
2023-03-28T17:44:29.404Z,3.33
2023-03-28T17:47:00.810Z,3.30
2023-03-28T17:49:29.611Z,3.26
2023-03-28T17:51:58.277Z,3.22
2023-03-28T17:54:26.535Z,3.26
2023-03-28T17:56:58.210Z,3.25
2023-03-28T17:59:29.491Z,3.26
2023-03-28T18:01:58.562Z,3.24
2023-03-28T18:04:28.015Z,3.17
2023-03-28T18:07:17.355Z,3.10
2023-03-28T18:09:52.048Z,3.16
2023-03-28T18:12:21.506Z,3.19
2023-03-28T18:14:49.745Z,3.18
2023-03-28T18:17:24.176Z,3.16
2023-03-28T18:19:52.857Z,3.20
2023-03-28T18:22:21.061Z,3.23
2023-03-28T18:24:49.190Z,3.19
2023-03-28T18:27:17.625Z,3.23
2023-03-28T18:29:47.646Z,3.13
2023-03-28T18:32:16.545Z,3.08
2023-03-28T18:34:45.575Z,3.07
2023-03-28T18:37:13.858Z,3.09
2023-03-28T18:39:42.345Z,3.08
2023-03-28T18:42:11.353Z,3.09
2023-03-28T18:44:41.518Z,3.05
2023-03-28T18:47:13.782Z,3.09
2023-03-28T18:49:42.345Z,3.11
2023-03-28T18:52:10.849Z,3.03
2023-03-28T18:54:45.879Z,3.07
2023-03-28T18:57:15.148Z,3.16
2023-03-28T18:59:47.105Z,3.10
2023-03-28T19:02:16.547Z,3.07
2023-03-28T19:04:45.000Z,3.10
2023-03-28T19:07:17.377Z,3.12
2023-03-28T19:09:46.644Z,3.13
2023-03-28T19:12:14.888Z,3.21
2023-03-28T19:14:43.839Z,3.25
2023-03-28T19:17:12.535Z,3.25
2023-03-28T19:19:40.667Z,3.27
2023-03-28T19:22:10.852Z,3.32
2023-03-28T19:24:39.332Z,3.35
2023-03-28T19:27:07.634Z,3.36
2023-03-28T19:29:39.880Z,3.31
2023-03-28T19:32:10.757Z,3.39
2023-03-28T19:34:38.916Z,3.39
2023-03-28T19:37:07.022Z,3.40
2023-03-28T19:39:35.239Z,3.37
2023-03-28T19:42:03.510Z,3.44
2023-03-28T19:44:33.503Z,3.41
2023-03-28T19:47:04.699Z,3.43
2023-03-28T19:49:39.377Z,3.39
2023-03-28T19:52:10.094Z,3.32
2023-03-28T19:54:38.574Z,3.34
2023-03-28T19:57:08.443Z,3.31
2023-03-28T19:59:37.290Z,3.24
2023-03-28T20:02:06.468Z,3.21
2023-03-28T20:04:37.850Z,3.20
2023-03-28T20:07:06.245Z,3.24
2023-03-28T20:09:48.910Z,3.21
2023-03-28T20:12:20.246Z,3.11
2023-03-28T20:14:48.510Z,3.11
2023-03-28T20:17:17.788Z,3.18
2023-03-28T20:19:46.637Z,3.21
2023-03-28T20:22:14.847Z,3.07
2023-03-28T20:24:43.173Z,3.11
2023-03-28T20:27:12.687Z,3.08
2023-03-28T20:29:45.445Z,3.04
2023-03-28T20:32:13.738Z,3.06
2023-03-28T20:34:42.377Z,3.02
2023-03-28T20:37:14.159Z,2.99
2023-03-28T20:39:47.433Z,2.99
2023-03-28T20:42:15.690Z,2.91
2023-03-28T20:44:43.974Z,2.90
2023-03-28T20:47:15.102Z,2.86
2023-03-28T20:49:46.644Z,2.89
2023-03-28T20:52:17.618Z,2.73
2023-03-28T20:54:47.745Z,2.71
2023-03-28T20:57:42.366Z,2.70
2023-03-28T21:00:14.560Z,2.71
2023-03-28T21:02:46.345Z,2.65
2023-03-28T21:05:14.891Z,2.65
2023-03-28T21:07:44.453Z,2.63
2023-03-28T21:10:14.421Z,2.73
2023-03-28T21:12:43.852Z,2.70
2023-03-28T21:15:12.196Z,2.66
2023-03-28T21:17:41.884Z,2.79
2023-03-28T21:20:10.577Z,2.73
2023-03-28T21:22:39.258Z,2.59
2023-03-28T21:25:08.053Z,2.66
2023-03-28T21:27:39.597Z,2.69
2023-03-28T21:30:08.673Z,2.73
2023-03-28T21:33:02.189Z,2.70
2023-03-28T21:35:32.250Z,2.73
2023-03-28T21:38:00.635Z,2.79
2023-03-28T21:40:28.820Z,2.73
2023-03-28T21:42:59.428Z,2.60
2023-03-28T21:45:28.018Z,2.56
2023-03-28T21:47:59.228Z,2.66
2023-03-28T21:50:31.767Z,2.78
2023-03-28T21:53:00.578Z,2.68
2023-03-28T21:55:29.268Z,2.62
2023-03-28T21:57:58.315Z,2.51
2023-03-28T22:00:26.765Z,2.49
2023-03-28T22:02:55.771Z,2.63
2023-03-28T22:05:29.801Z,2.64
2023-03-28T22:07:58.691Z,2.50
2023-03-28T22:10:27.123Z,2.50
2023-03-28T22:12:58.931Z,2.41
2023-03-28T22:15:27.873Z,2.32
2023-03-28T22:17:58.449Z,2.24
2023-03-28T22:20:35.844Z,2.19
2023-03-28T22:23:04.770Z,2.14
2023-03-28T22:25:34.934Z,2.09
2023-03-28T22:28:12.754Z,2.07
2023-03-28T22:30:41.621Z,2.02
2023-03-28T22:33:11.220Z,2.05
2023-03-28T22:35:40.444Z,2.05
2023-03-28T22:38:08.937Z,2.02
2023-03-28T22:40:37.045Z,2.05
2023-03-28T22:43:05.250Z,1.98
2023-03-28T22:45:34.488Z,1.85
2023-03-28T22:48:03.513Z,1.80
2023-03-28T22:50:33.968Z,1.71
2023-03-28T22:53:04.511Z,1.66
2023-03-28T22:55:33.706Z,1.66
2023-03-28T22:58:05.439Z,1.60
2023-03-28T23:00:34.633Z,1.53
2023-03-28T23:03:02.913Z,1.53
2023-03-28T23:05:32.079Z,1.55
2023-03-28T23:08:01.091Z,1.53
2023-03-28T23:10:29.689Z,1.54
2023-03-28T23:12:58.550Z,1.45
2023-03-28T23:15:26.935Z,1.37
2023-03-28T23:17:56.105Z,1.33
2023-03-28T23:20:26.677Z,1.38
2023-03-28T23:22:55.052Z,1.39
2023-03-28T23:25:23.261Z,1.24
2023-03-28T23:27:51.728Z,1.32
2023-03-28T23:30:19.985Z,1.30
2023-03-28T23:32:48.568Z,1.28
2023-03-28T23:35:17.099Z,1.24
2023-03-28T23:37:47.897Z,0.97
2023-03-28T23:40:16.203Z,1.00
2023-03-28T23:42:45.091Z,1.01
2023-03-28T23:45:15.059Z,0.93
2023-03-28T23:47:44.053Z,1.03
2023-03-28T23:50:12.906Z,1.06
2023-03-28T23:52:41.258Z,1.08
2023-03-28T23:55:17.251Z,1.25
2023-03-28T23:57:47.533Z,1.38
